Airport View

Enter AWOS ICAO identifier for current METAR.

ex. KFNL

KNJK 050556Z 27013KT 10SM FEW250 32/04 A2977 RMK SLP095 LAST T03170039 10417 20333 51009

5 Aug 2020 12:44

Other Area AWOS: KIPL - KCZZ - KTRM - KSEE

TAF KNJK 0507/0607 VRB06KT 9999 FEW250 QNH2972INS BECMG 0519/0521 25020KT 9999 FEW250 510303 QNH2962INS TEMPO 0523/0605 25025G35KT LAST NO AMDS AFT 0507 NEXT 0513 T26/0513Z T45/0523Z FS30169